X  Zatvori METAR podaci zračne luke     LDPL Pula Airport
Temperatura
22°C Temperatura
7°C Točka rosišta
38% Vlaga



Vjetar
8 KM/S
5 MPS
2 M/S
4 Čvorovi



Tišina
Sjever
Trenutna situacija

Vedro Vedro
Tlak zraka 1022.92 (hPa) - 30.21 (inHg)
Vidljivost 6.2 (milje) - 10 (km)
Zračna luka
Kôd zračne luke LDPL

Lokacija: Pula Airport
Udaljenost: 39 (km)

Metar:
LDPL 231200Z VRB04KT CAVOK 22/07 Q1023 BECMG 27008KT

Vrijeme: 23-09-2021 14:00 CEST